sensor_id;sensor_type;location;lat;lon;timestamp;pressure;altitude;pressure_sealevel;temperature;humidity
26489;BME280;14169;43.684;10.484;2023-02-28T00:00:21;101699.13;;;7.24;100.00
26489;BME280;14169;43.684;10.484;2023-02-28T00:02:47;101695.66;;;7.19;100.00
26489;BME280;14169;43.684;10.484;2023-02-28T00:05:16;101680.97;;;7.12;100.00
26489;BME280;14169;43.684;10.484;2023-02-28T00:07:42;101679.25;;;7.11;100.00
26489;BME280;14169;43.684;10.484;2023-02-28T00:10:11;101690.47;;;7.10;100.00
26489;BME280;14169;43.684;10.484;2023-02-28T00:12:37;101686.16;;;7.07;100.00
26489;BME280;14169;43.684;10.484;2023-02-28T00:15:10;101690.50;;;7.08;100.00
26489;BME280;14169;43.684;10.484;2023-02-28T00:17:37;101684.44;;;7.09;100.00
26489;BME280;14169;43.684;10.484;2023-02-28T00:20:03;101695.63;;;7.13;100.00
26489;BME280;14169;43.684;10.484;2023-02-28T00:22:44;101676.66;;;7.11;100.00
26489;BME280;14169;43.684;10.484;2023-02-28T00:25:13;101676.66;;;7.14;100.00
26489;BME280;14169;43.684;10.484;2023-02-28T00:27:40;101681.84;;;7.14;100.00
26489;BME280;14169;43.684;10.484;2023-02-28T00:30:09;101674.94;;;7.14;100.00
26489;BME280;14169;43.684;10.484;2023-02-28T00:32:35;101674.94;;;7.17;100.00
26489;BME280;14169;43.684;10.484;2023-02-28T00:35:03;101681.84;;;7.21;100.00
26489;BME280;14169;43.684;10.484;2023-02-28T00:37:29;101670.63;;;7.22;100.00
26489;BME280;14169;43.684;10.484;2023-02-28T00:39:54;101674.91;;;7.25;100.00
26489;BME280;14169;43.684;10.484;2023-02-28T00:42:20;101676.66;;;7.24;100.00
26489;BME280;14169;43.684;10.484;2023-02-28T00:44:45;101678.38;;;7.25;100.00
26489;BME280;14169;43.684;10.484;2023-02-28T00:47:11;101670.59;;;7.30;100.00
26489;BME280;14169;43.684;10.484;2023-02-28T00:49:37;101667.13;;;7.31;100.00
26489;BME280;14169;43.684;10.484;2023-02-28T00:52:03;101667.97;;;7.33;100.00
26489;BME280;14169;43.684;10.484;2023-02-28T00:54:28;101652.41;;;7.33;100.00
26489;BME280;14169;43.684;10.484;2023-02-28T00:56:54;101656.75;;;7.34;100.00
26489;BME280;14169;43.684;10.484;2023-02-28T00:59:19;101656.75;;;7.34;100.00
26489;BME280;14169;43.684;10.484;2023-02-28T01:01:45;101648.09;;;7.35;100.00
26489;BME280;14169;43.684;10.484;2023-02-28T01:04:12;101644.66;;;7.36;100.00
26489;BME280;14169;43.684;10.484;2023-02-28T01:06:37;101637.72;;;7.36;100.00
26489;BME280;14169;43.684;10.484;2023-02-28T01:09:04;101645.50;;;7.39;100.00
26489;BME280;14169;43.684;10.484;2023-02-28T01:11:30;101628.19;;;7.43;100.00
26489;BME280;14169;43.684;10.484;2023-02-28T01:13:56;101631.63;;;7.45;100.00
26489;BME280;14169;43.684;10.484;2023-02-28T01:16:22;101631.63;;;7.48;100.00
26489;BME280;14169;43.684;10.484;2023-02-28T01:18:47;101635.06;;;7.53;100.00
26489;BME280;14169;43.684;10.484;2023-02-28T01:21:16;101638.53;;;7.52;100.00
26489;BME280;14169;43.684;10.484;2023-02-28T01:23:42;101641.09;;;7.58;100.00
26489;BME280;14169;43.684;10.484;2023-02-28T01:26:09;101656.63;;;7.57;100.00
26489;BME280;14169;43.684;10.484;2023-02-28T01:28:35;101641.97;;;7.54;100.00
26489;BME280;14169;43.684;10.484;2023-02-28T01:31:01;101648.88;;;7.53;100.00
26489;BME280;14169;43.684;10.484;2023-02-28T01:33:28;101654.06;;;7.50;100.00
26489;BME280;14169;43.684;10.484;2023-02-28T01:36:12;101654.09;;;7.47;100.00
26489;BME280;14169;43.684;10.484;2023-02-28T01:38:38;101657.56;;;7.48;100.00
26489;BME280;14169;43.684;10.484;2023-02-28T01:41:04;101655.84;;;7.44;100.00
26489;BME280;14169;43.684;10.484;2023-02-28T01:46:09;101657.59;;;7.39;100.00
26489;BME280;14169;43.684;10.484;2023-02-28T01:48:38;101645.50;;;7.38;100.00
26489;BME280;14169;43.684;10.484;2023-02-28T01:51:10;101641.19;;;7.35;100.00
26489;BME280;14169;43.684;10.484;2023-02-28T01:53:45;101666.22;;;7.39;100.00
26489;BME280;14169;43.684;10.484;2023-02-28T01:56:16;101658.44;;;7.39;100.00
26489;BME280;14169;43.684;10.484;2023-02-28T01:58:47;101662.75;;;7.39;100.00
26489;BME280;14169;43.684;10.484;2023-02-28T02:01:13;101667.09;;;7.40;100.00
26489;BME280;14169;43.684;10.484;2023-02-28T02:03:48;101660.19;;;7.39;100.00
26489;BME280;14169;43.684;10.484;2023-02-28T02:06:21;101654.13;;;7.41;100.00
26489;BME280;14169;43.684;10.484;2023-02-28T02:08:47;101654.13;;;7.41;100.00
26489;BME280;14169;43.684;10.484;2023-02-28T02:11:13;101657.59;;;7.42;100.00
26489;BME280;14169;43.684;10.484;2023-02-28T02:30:59;101654.97;;;7.45;100.00
26489;BME280;14169;43.684;10.484;2023-02-28T02:36:45;101641.19;;;7.40;100.00
26489;BME280;14169;43.684;10.484;2023-02-28T02:42:35;101654.09;;;7.47;100.00
26489;BME280;14169;43.684;10.484;2023-02-28T02:45:07;101658.41;;;7.50;100.00
26489;BME280;14169;43.684;10.484;2023-02-28T02:47:35;101664.44;;;7.50;100.00
26489;BME280;14169;43.684;10.484;2023-02-28T02:50:04;101661.00;;;7.48;100.00
26489;BME280;14169;43.684;10.484;2023-02-28T02:52:36;101660.13;;;7.49;100.00
26489;BME280;14169;43.684;10.484;2023-02-28T02:55:05;101654.91;;;7.52;100.00
26489;BME280;14169;43.684;10.484;2023-02-28T02:57:36;101660.97;;;7.58;100.00
26489;BME280;14169;43.684;10.484;2023-02-28T03:00:04;101650.56;;;7.61;100.00
26489;BME280;14169;43.684;10.484;2023-02-28T03:02:35;101651.44;;;7.61;100.00
26489;BME280;14169;43.684;10.484;2023-02-28T03:05:07;101656.59;;;7.67;100.00
26489;BME280;14169;43.684;10.484;2023-02-28T03:07:34;101654.00;;;7.67;100.00
26489;BME280;14169;43.684;10.484;2023-02-28T03:10:00;101649.66;;;7.69;100.00
26489;BME280;14169;43.684;10.484;2023-02-28T03:12:41;101647.06;;;7.69;100.00
26489;BME280;14169;43.684;10.484;2023-02-28T03:15:27;101643.59;;;7.72;100.00
26489;BME280;14169;43.684;10.484;2023-02-28T03:18:04;101644.44;;;7.75;100.00
26489;BME280;14169;43.684;10.484;2023-02-28T03:26:00;101640.97;;;7.79;100.00
26489;BME280;14169;43.684;10.484;2023-02-28T03:31:17;101635.75;;;7.84;100.00
26489;BME280;14169;43.684;10.484;2023-02-28T03:33:54;101634.88;;;7.86;100.00
26489;BME280;14169;43.684;10.484;2023-02-28T03:36:28;101640.03;;;7.89;100.00
26489;BME280;14169;43.684;10.484;2023-02-28T03:39:01;101636.59;;;7.87;100.00
26489;BME280;14169;43.684;10.484;2023-02-28T03:44:36;101624.44;;;7.92;100.00
26489;BME280;14169;43.684;10.484;2023-02-28T03:49:46;101627.03;;;7.91;100.00
26489;BME280;14169;43.684;10.484;2023-02-28T03:52:15;101634.81;;;7.95;100.00
26489;BME280;14169;43.684;10.484;2023-02-28T03:54:45;101633.06;;;7.93;100.00
26489;BME280;14169;43.684;10.484;2023-02-28T03:57:21;101640.88;;;7.91;100.00
26489;BME280;14169;43.684;10.484;2023-02-28T04:00:12;101639.19;;;7.90;100.00
26489;BME280;14169;43.684;10.484;2023-02-28T04:02:39;101641.78;;;7.87;100.00
26489;BME280;14169;43.684;10.484;2023-02-28T04:05:06;101641.78;;;7.87;100.00
26489;BME280;14169;43.684;10.484;2023-02-28T04:07:32;101641.81;;;7.81;100.00
26489;BME280;14169;43.684;10.484;2023-02-28T04:09:58;101641.78;;;7.86;100.00
26489;BME280;14169;43.684;10.484;2023-02-28T04:12:24;101648.66;;;7.91;100.00
26489;BME280;14169;43.684;10.484;2023-02-28T04:14:49;101643.50;;;7.88;100.00
26489;BME280;14169;43.684;10.484;2023-02-28T04:17:16;101639.19;;;7.83;100.00
26489;BME280;14169;43.684;10.484;2023-02-28T04:19:41;101634.03;;;7.81;100.00
26489;BME280;14169;43.684;10.484;2023-02-28T04:22:08;101643.56;;;7.79;100.00
26489;BME280;14169;43.684;10.484;2023-02-28T04:24:34;101638.41;;;7.76;100.00
26489;BME280;14169;43.684;10.484;2023-02-28T04:26:59;101646.19;;;7.73;100.00
26489;BME280;14169;43.684;10.484;2023-02-28T04:29:30;101641.88;;;7.72;100.00
26489;BME280;14169;43.684;10.484;2023-02-28T04:31:57;101648.78;;;7.72;100.00
26489;BME280;14169;43.684;10.484;2023-02-28T04:34:25;101647.06;;;7.72;100.00
26489;BME280;14169;43.684;10.484;2023-02-28T04:36:51;101658.28;;;7.74;100.00
26489;BME280;14169;43.684;10.484;2023-02-28T04:39:19;101653.94;;;7.79;100.00
26489;BME280;14169;43.684;10.484;2023-02-28T04:41:45;101653.06;;;7.80;100.00
26489;BME280;14169;43.684;10.484;2023-02-28T04:44:11;101658.25;;;7.77;100.00
26489;BME280;14169;43.684;10.484;2023-02-28T04:46:36;101660.88;;;7.76;100.00
26489;BME280;14169;43.684;10.484;2023-02-28T04:49:02;101663.44;;;7.77;100.00
26489;BME280;14169;43.684;10.484;2023-02-28T04:51:27;101672.09;;;7.78;100.00
26489;BME280;14169;43.684;10.484;2023-02-28T04:53:53;101673.84;;;7.76;100.00
26489;BME280;14169;43.684;10.484;2023-02-28T04:56:19;101668.66;;;7.71;100.00
26489;BME280;14169;43.684;10.484;2023-02-28T04:58:45;101669.53;;;7.72;100.00
26489;BME280;14169;43.684;10.484;2023-02-28T05:01:18;101665.22;;;7.69;100.00
26489;BME280;14169;43.684;10.484;2023-02-28T05:03:44;101671.31;;;7.64;100.00
26489;BME280;14169;43.684;10.484;2023-02-28T05:06:11;101674.75;;;7.66;100.00
26489;BME280;14169;43.684;10.484;2023-02-28T05:08:37;101662.63;;;7.65;100.00
26489;BME280;14169;43.684;10.484;2023-02-28T05:11:03;101665.22;;;7.65;100.00
26489;BME280;14169;43.684;10.484;2023-02-28T05:13:29;101666.97;;;7.67;100.00
26489;BME280;14169;43.684;10.484;2023-02-28T05:15:55;101667.81;;;7.69;100.00
26489;BME280;14169;43.684;10.484;2023-02-28T05:18:20;101664.38;;;7.70;100.00
26489;BME280;14169;43.684;10.484;2023-02-28T05:20:46;101662.59;;;7.71;100.00
26489;BME280;14169;43.684;10.484;2023-02-28T05:23:12;101664.34;;;7.72;100.00
26489;BME280;14169;43.684;10.484;2023-02-28T05:25:39;101670.38;;;7.74;100.00
26489;BME280;14169;43.684;10.484;2023-02-28T05:28:05;101680.75;;;7.78;100.00
26489;BME280;14169;43.684;10.484;2023-02-28T05:30:31;101683.31;;;7.80;100.00
26489;BME280;14169;43.684;10.484;2023-02-28T05:32:57;101678.19;;;7.72;100.00
26489;BME280;14169;43.684;10.484;2023-02-28T05:35:23;101670.41;;;7.68;100.00
26489;BME280;14169;43.684;10.484;2023-02-28T05:37:49;101677.38;;;7.58;100.00
26489;BME280;14169;43.684;10.484;2023-02-28T05:40:14;101664.47;;;7.52;100.00
26489;BME280;14169;43.684;10.484;2023-02-28T05:42:41;101663.63;;;7.45;100.00
26489;BME280;14169;43.684;10.484;2023-02-28T05:45:07;101661.91;;;7.41;100.00
26489;BME280;14169;43.684;10.484;2023-02-28T05:47:33;101663.63;;;7.41;100.00
26489;BME280;14169;43.684;10.484;2023-02-28T05:49:59;101661.91;;;7.40;100.00
26489;BME280;14169;43.684;10.484;2023-02-28T05:52:25;101653.28;;;7.39;100.00
26489;BME280;14169;43.684;10.484;2023-02-28T05:54:50;101663.59;;;7.42;100.00
26489;BME280;14169;43.684;10.484;2023-02-28T05:57:15;101667.94;;;7.42;100.00
26489;BME280;14169;43.684;10.484;2023-02-28T05:59:41;101675.72;;;7.42;100.00
26489;BME280;14169;43.684;10.484;2023-02-28T06:02:12;101671.41;;;7.39;100.00
26489;BME280;14169;43.684;10.484;2023-02-28T06:04:37;101680.03;;;7.41;100.00
26489;BME280;14169;43.684;10.484;2023-02-28T06:07:03;101686.94;;;7.45;100.00
26489;BME280;14169;43.684;10.484;2023-02-28T06:09:30;101678.28;;;7.46;100.00
26489;BME280;14169;43.684;10.484;2023-02-28T06:12:00;101681.75;;;7.47;100.00
26489;BME280;14169;43.684;10.484;2023-02-28T06:14:28;101681.75;;;7.45;100.00
26489;BME280;14169;43.684;10.484;2023-02-28T06:16:53;101694.69;;;7.51;100.00
26489;BME280;14169;43.684;10.484;2023-02-28T06:19:18;101694.72;;;7.50;100.00
26489;BME280;14169;43.684;10.484;2023-02-28T06:21:44;101697.25;;;7.54;100.00
26489;BME280;14169;43.684;10.484;2023-02-28T06:24:10;101693.81;;;7.52;100.00
26489;BME280;14169;43.684;10.484;2023-02-28T06:26:35;101696.41;;;7.52;100.00
26489;BME280;14169;43.684;10.484;2023-02-28T06:29:01;101696.41;;;7.52;100.00
26489;BME280;14169;43.684;10.484;2023-02-28T06:31:27;101699.84;;;7.54;100.00
26489;BME280;14169;43.684;10.484;2023-02-28T06:33:54;101703.31;;;7.57;100.00
26489;BME280;14169;43.684;10.484;2023-02-28T06:36:20;101710.22;;;7.59;100.00
26489;BME280;14169;43.684;10.484;2023-02-28T06:38:45;101705.88;;;7.64;100.00
26489;BME280;14169;43.684;10.484;2023-02-28T06:41:13;101718.81;;;7.72;100.00
26489;BME280;14169;43.684;10.484;2023-02-28T06:43:41;101725.69;;;7.80;100.00
26489;BME280;14169;43.684;10.484;2023-02-28T06:46:08;101729.94;;;7.89;100.00
26489;BME280;14169;43.684;10.484;2023-02-28T06:48:35;101728.22;;;7.89;100.00
26489;BME280;14169;43.684;10.484;2023-02-28T06:51:13;101738.53;;;7.98;100.00
26489;BME280;14169;43.684;10.484;2023-02-28T06:53:39;101733.31;;;8.07;100.00
26489;BME280;14169;43.684;10.484;2023-02-28T06:56:06;101731.56;;;8.14;100.00
26489;BME280;14169;43.684;10.484;2023-02-28T06:58:32;101716.81;;;8.19;100.00
26489;BME280;14169;43.684;10.484;2023-02-28T07:00:58;101719.34;;;8.28;100.00
26489;BME280;14169;43.684;10.484;2023-02-28T07:03:24;101714.09;;;8.37;100.00
26489;BME280;14169;43.684;10.484;2023-02-28T07:05:49;101711.41;;;8.48;100.00
26489;BME280;14169;43.684;10.484;2023-02-28T07:08:16;101710.50;;;8.53;100.00
26489;BME280;14169;43.684;10.484;2023-02-28T07:10:42;101711.31;;;8.61;100.00
26489;BME280;14169;43.684;10.484;2023-02-28T07:13:08;101705.16;;;8.68;100.00
26489;BME280;14169;43.684;10.484;2023-02-28T07:15:37;101699.00;;;8.81;100.00
26489;BME280;14169;43.684;10.484;2023-02-28T07:18:03;101704.09;;;8.90;100.00
26489;BME280;14169;43.684;10.484;2023-02-28T07:20:29;101706.63;;;8.99;100.00
26489;BME280;14169;43.684;10.484;2023-02-28T07:22:54;101704.88;;;9.06;100.00
26489;BME280;14169;43.684;10.484;2023-02-28T07:25:30;101696.97;;;9.13;100.00
26489;BME280;14169;43.684;10.484;2023-02-28T07:27:56;101707.16;;;9.33;100.00
26489;BME280;14169;43.684;10.484;2023-02-28T07:30:24;101698.22;;;9.55;100.00
26489;BME280;14169;43.684;10.484;2023-02-28T07:32:49;101698.88;;;9.74;100.00
26489;BME280;14169;43.684;10.484;2023-02-28T07:35:15;101702.91;;;9.94;100.00
26489;BME280;14169;43.684;10.484;2023-02-28T07:37:41;101701.06;;;10.02;100.00
26489;BME280;14169;43.684;10.484;2023-02-28T07:40:09;101711.16;;;10.24;100.00
26489;BME280;14169;43.684;10.484;2023-02-28T07:42:39;101709.22;;;10.38;100.00
26489;BME280;14169;43.684;10.484;2023-02-28T07:45:06;101701.13;;;10.57;100.00
26489;BME280;14169;43.684;10.484;2023-02-28T07:47:31;101696.63;;;10.64;100.00
26489;BME280;14169;43.684;10.484;2023-02-28T07:49:57;101699.97;;;10.73;100.00
26489;BME280;14169;43.684;10.484;2023-02-28T07:52:23;101709.72;;;10.61;100.00
26489;BME280;14169;43.684;10.484;2023-02-28T07:54:49;101707.91;;;10.66;100.00
26489;BME280;14169;43.684;10.484;2023-02-28T07:57:15;101721.19;;;10.49;100.00
26489;BME280;14169;43.684;10.484;2023-02-28T07:59:41;101713.50;;;10.42;100.00
26489;BME280;14169;43.684;10.484;2023-02-28T08:02:08;101715.16;;;10.44;100.00
26489;BME280;14169;43.684;10.484;2023-02-28T08:04:35;101709.97;;;10.46;100.00
26489;BME280;14169;43.684;10.484;2023-02-28T08:07:00;101720.19;;;10.58;100.00
26489;BME280;14169;43.684;10.484;2023-02-28T08:09:26;101722.47;;;10.79;100.00
26489;BME280;14169;43.684;10.484;2023-02-28T08:11:51;101719.66;;;10.91;100.00
26489;BME280;14169;43.684;10.484;2023-02-28T08:14:17;101695.16;;;10.98;100.00
26489;BME280;14169;43.684;10.484;2023-02-28T08:16:42;101728.34;;;10.91;100.00
26489;BME280;14169;43.684;10.484;2023-02-28T08:19:08;101723.81;;;11.01;100.00
26489;BME280;14169;43.684;10.484;2023-02-28T08:21:34;101718.44;;;11.09;100.00
26489;BME280;14169;43.684;10.484;2023-02-28T08:23:59;101731.50;;;11.09;100.00
26489;BME280;14169;43.684;10.484;2023-02-28T08:26:25;101719.44;;;11.03;100.00
26489;BME280;14169;43.684;10.484;2023-02-28T08:28:50;101719.75;;;10.85;100.00
26489;BME280;14169;43.684;10.484;2023-02-28T08:31:16;101707.88;;;10.69;100.00
26489;BME280;14169;43.684;10.484;2023-02-28T08:33:43;101708.06;;;10.57;100.00
26489;BME280;14169;43.684;10.484;2023-02-28T08:36:10;101708.19;;;10.46;100.00
26489;BME280;14169;43.684;10.484;2023-02-28T08:38:37;101711.69;;;10.45;100.00
26489;BME280;14169;43.684;10.484;2023-02-28T08:41:05;101711.81;;;10.38;100.00
26489;BME280;14169;43.684;10.484;2023-02-28T08:43:33;101723.94;;;10.39;100.00
26489;BME280;14169;43.684;10.484;2023-02-28T08:45:58;101724.75;;;10.44;100.00
26489;BME280;14169;43.684;10.484;2023-02-28T08:48:26;101728.13;;;10.49;100.00
26489;BME280;14169;43.684;10.484;2023-02-28T08:51:00;101723.47;;;10.70;100.00
26489;BME280;14169;43.684;10.484;2023-02-28T08:53:26;101728.09;;;11.05;100.00
26489;BME280;14169;43.684;10.484;2023-02-28T08:56:15;101725.78;;;11.34;100.00
26489;BME280;14169;43.684;10.484;2023-02-28T08:58:46;101728.47;;;11.31;100.00
26489;BME280;14169;43.684;10.484;2023-02-28T09:01:15;101725.25;;;11.17;100.00
26489;BME280;14169;43.684;10.484;2023-02-28T09:03:41;101733.41;;;10.99;100.00
26489;BME280;14169;43.684;10.484;2023-02-28T09:06:07;101717.94;;;10.88;100.00
26489;BME280;14169;43.684;10.484;2023-02-28T09:08:33;101727.50;;;10.88;100.00
26489;BME280;14169;43.684;10.484;2023-02-28T09:10:59;101710.81;;;10.98;100.00
26489;BME280;14169;43.684;10.484;2023-02-28T09:13:26;101716.13;;;10.92;100.00
26489;BME280;14169;43.684;10.484;2023-02-28T09:15:52;101712.59;;;10.96;100.00
26489;BME280;14169;43.684;10.484;2023-02-28T09:18:19;101711.34;;;11.17;100.00
26489;BME280;14169;43.684;10.484;2023-02-28T09:20:44;101713.00;;;11.21;100.00
26489;BME280;14169;43.684;10.484;2023-02-28T09:23:11;101712.09;;;11.22;100.00
26489;BME280;14169;43.684;10.484;2023-02-28T09:25:40;101705.97;;;11.24;100.00
26489;BME280;14169;43.684;10.484;2023-02-28T09:28:10;101714.59;;;11.29;100.00
26489;BME280;14169;43.684;10.484;2023-02-28T09:30:37;101713.56;;;11.36;100.00
26489;BME280;14169;43.684;10.484;2023-02-28T09:33:02;101724.78;;;11.41;100.00
26489;BME280;14169;43.684;10.484;2023-02-28T09:35:28;101705.63;;;11.42;100.00
26489;BME280;14169;43.684;10.484;2023-02-28T09:37:56;101716.72;;;11.52;100.00
26489;BME280;14169;43.684;10.484;2023-02-28T09:40:24;101728.06;;;11.51;99.12
26489;BME280;14169;43.684;10.484;2023-02-28T09:42:53;101711.28;;;11.62;100.00
26489;BME280;14169;43.684;10.484;2023-02-28T09:45:24;101720.66;;;11.72;98.74
26489;BME280;14169;43.684;10.484;2023-02-28T09:47:52;101722.84;;;11.94;98.94
26489;BME280;14169;43.684;10.484;2023-02-28T09:50:35;101720.94;;;12.38;98.68
26489;BME280;14169;43.684;10.484;2023-02-28T09:53:06;101719.03;;;12.80;95.40
26489;BME280;14169;43.684;10.484;2023-02-28T09:55:37;101715.03;;;13.01;92.16
26489;BME280;14169;43.684;10.484;2023-02-28T09:58:05;101720.19;;;13.02;90.83
26489;BME280;14169;43.684;10.484;2023-02-28T10:00:37;101706.38;;;12.65;90.94
26489;BME280;14169;43.684;10.484;2023-02-28T10:03:19;101715.22;;;12.23;91.76
26489;BME280;14169;43.684;10.484;2023-02-28T10:05:58;101714.06;;;11.96;93.36
26489;BME280;14169;43.684;10.484;2023-02-28T10:08:38;101711.00;;;11.77;94.39
26489;BME280;14169;43.684;10.484;2023-02-28T10:11:14;101693.84;;;12.06;94.60
26489;BME280;14169;43.684;10.484;2023-02-28T10:14:00;101707.00;;;12.38;93.99
26489;BME280;14169;43.684;10.484;2023-02-28T10:16:51;101706.47;;;12.25;93.79
26489;BME280;14169;43.684;10.484;2023-02-28T10:22:32;101703.34;;;12.46;94.15
26489;BME280;14169;43.684;10.484;2023-02-28T10:24:58;101696.16;;;12.54;92.89
26489;BME280;14169;43.684;10.484;2023-02-28T10:27:30;101708.97;;;12.99;92.06
26489;BME280;14169;43.684;10.484;2023-02-28T10:30:00;101706.16;;;13.38;88.52
26489;BME280;14169;43.684;10.484;2023-02-28T10:32:33;101709.13;;;13.86;86.28
26489;BME280;14169;43.684;10.484;2023-02-28T10:35:03;101697.16;;;14.05;83.05
26489;BME280;14169;43.684;10.484;2023-02-28T10:37:32;101704.81;;;14.13;82.64
26489;BME280;14169;43.684;10.484;2023-02-28T10:40:03;101713.00;;;13.73;82.65
26489;BME280;14169;43.684;10.484;2023-02-28T10:42:31;101703.56;;;13.68;82.75
26489;BME280;14169;43.684;10.484;2023-02-28T10:45:10;101711.84;;;13.22;85.05
26489;BME280;14169;43.684;10.484;2023-02-28T10:48:05;101709.50;;;12.79;86.22
26489;BME280;14169;43.684;10.484;2023-02-28T10:50:37;101705.44;;;12.66;88.64
26489;BME280;14169;43.684;10.484;2023-02-28T10:55:35;101713.59;;;12.89;90.19
26489;BME280;14169;43.684;10.484;2023-02-28T10:58:01;101695.59;;;12.76;89.81
26489;BME280;14169;43.684;10.484;2023-02-28T11:00:33;101698.03;;;13.49;90.22
26489;BME280;14169;43.684;10.484;2023-02-28T11:02:59;101693.63;;;14.36;87.03
26489;BME280;14169;43.684;10.484;2023-02-28T11:05:30;101669.25;;;14.84;81.26
26489;BME280;14169;43.684;10.484;2023-02-28T11:08:14;101681.66;;;14.79;77.60
26489;BME280;14169;43.684;10.484;2023-02-28T11:10:44;101690.72;;;15.20;76.77
26489;BME280;14169;43.684;10.484;2023-02-28T11:13:18;101688.34;;;15.39;74.27
26489;BME280;14169;43.684;10.484;2023-02-28T11:15:51;101687.88;;;15.51;74.71
26489;BME280;14169;43.684;10.484;2023-02-28T11:21:05;101669.69;;;15.68;72.39
26489;BME280;14169;43.684;10.484;2023-02-28T11:23:33;101657.53;;;15.88;71.45
26489;BME280;14169;43.684;10.484;2023-02-28T11:26:03;101654.28;;;15.82;70.35
26489;BME280;14169;43.684;10.484;2023-02-28T11:28:37;101651.72;;;15.80;69.54
26489;BME280;14169;43.684;10.484;2023-02-28T11:33:54;101646.16;;;15.88;68.53
26489;BME280;14169;43.684;10.484;2023-02-28T11:36:26;101643.38;;;15.91;69.12
26489;BME280;14169;43.684;10.484;2023-02-28T11:39:03;101644.25;;;16.13;68.00
26489;BME280;14169;43.684;10.484;2023-02-28T11:46:58;101630.38;;;14.71;76.10
26489;BME280;14169;43.684;10.484;2023-02-28T12:08:44;101600.41;;;14.01;81.77
26489;BME280;14169;43.684;10.484;2023-02-28T12:11:24;101605.03;;;13.91;80.71
26489;BME280;14169;43.684;10.484;2023-02-28T12:22:52;101590.41;;;13.29;82.67
26489;BME280;14169;43.684;10.484;2023-02-28T12:28:27;101580.06;;;13.54;82.08
26489;BME280;14169;43.684;10.484;2023-02-28T12:31:06;101579.25;;;13.52;81.21
26489;BME280;14169;43.684;10.484;2023-02-28T12:33:38;101561.91;;;13.47;80.63
26489;BME280;14169;43.684;10.484;2023-02-28T12:36:10;101576.44;;;13.58;80.40
26489;BME280;14169;43.684;10.484;2023-02-28T12:38:56;101570.00;;;13.69;80.32
26489;BME280;14169;43.684;10.484;2023-02-28T12:44:00;101549.56;;;14.06;78.08
26489;BME280;14169;43.684;10.484;2023-02-28T12:46:33;101554.31;;;14.46;75.60
26489;BME280;14169;43.684;10.484;2023-02-28T12:49:06;101557.09;;;14.66;74.24
26489;BME280;14169;43.684;10.484;2023-02-28T12:51:34;101555.66;;;14.58;73.16
26489;BME280;14169;43.684;10.484;2023-02-28T12:54:07;101562.59;;;14.83;73.62
26489;BME280;14169;43.684;10.484;2023-02-28T13:02:03;101545.13;;;15.52;66.50
26489;BME280;14169;43.684;10.484;2023-02-28T13:05:08;101547.78;;;15.29;64.83
26489;BME280;14169;43.684;10.484;2023-02-28T13:10:41;101547.13;;;15.67;64.90
26489;BME280;14169;43.684;10.484;2023-02-28T13:13:17;101553.06;;;15.72;63.11
26489;BME280;14169;43.684;10.484;2023-02-28T13:18:30;101534.25;;;14.45;66.44
26489;BME280;14169;43.684;10.484;2023-02-28T13:20:57;101548.59;;;13.83;71.71
26489;BME280;14169;43.684;10.484;2023-02-28T13:26:12;101545.38;;;13.47;77.89
26489;BME280;14169;43.684;10.484;2023-02-28T13:31:16;101535.13;;;13.10;79.32
26489;BME280;14169;43.684;10.484;2023-02-28T13:38:47;101535.94;;;13.12;80.49
26489;BME280;14169;43.684;10.484;2023-02-28T13:41:43;101532.78;;;13.01;80.84
26489;BME280;14169;43.684;10.484;2023-02-28T13:44:21;101535.19;;;13.07;81.86
26489;BME280;14169;43.684;10.484;2023-02-28T13:57:40;101508.56;;;12.64;83.13
26489;BME280;14169;43.684;10.484;2023-02-28T14:05:19;101515.31;;;12.73;85.87
26489;BME280;14169;43.684;10.484;2023-02-28T14:07:49;101509.72;;;13.14;84.13
26489;BME280;14169;43.684;10.484;2023-02-28T14:15:35;101513.09;;;14.25;71.46
26489;BME280;14169;43.684;10.484;2023-02-28T14:18:05;101518.38;;;15.19;72.96
26489;BME280;14169;43.684;10.484;2023-02-28T14:20:36;101525.69;;;14.65;70.29
26489;BME280;14169;43.684;10.484;2023-02-28T14:28:12;101537.97;;;13.32;80.43
26489;BME280;14169;43.684;10.484;2023-02-28T14:31:04;101535.41;;;13.01;83.05
26489;BME280;14169;43.684;10.484;2023-02-28T14:36:30;101521.75;;;12.59;87.23
26489;BME280;14169;43.684;10.484;2023-02-28T14:39:00;101510.97;;;12.72;88.18
26489;BME280;14169;43.684;10.484;2023-02-28T14:41:34;101505.13;;;12.62;87.77
26489;BME280;14169;43.684;10.484;2023-02-28T14:46:48;101500.75;;;14.53;80.50
26489;BME280;14169;43.684;10.484;2023-02-28T14:49:24;101491.16;;;15.22;75.21
26489;BME280;14169;43.684;10.484;2023-02-28T14:54:46;101498.16;;;15.44;68.02
26489;BME280;14169;43.684;10.484;2023-02-28T14:59:58;101505.28;;;14.73;65.94
26489;BME280;14169;43.684;10.484;2023-02-28T15:02:25;101493.91;;;13.46;74.07
26489;BME280;14169;43.684;10.484;2023-02-28T15:04:56;101490.44;;;12.89;81.64
26489;BME280;14169;43.684;10.484;2023-02-28T15:07:22;101487.88;;;12.56;85.83
26489;BME280;14169;43.684;10.484;2023-02-28T15:10:20;101484.06;;;12.37;87.85
26489;BME280;14169;43.684;10.484;2023-02-28T15:15:18;101480.38;;;12.12;91.07
26489;BME280;14169;43.684;10.484;2023-02-28T15:17:52;101487.66;;;12.01;90.44
26489;BME280;14169;43.684;10.484;2023-02-28T15:20:19;101482.53;;;11.97;89.88